createdAt,value
2024-02-12T00:00:01.862Z,0.006
2024-02-12T00:05:01.984Z,0.03
2024-02-12T00:10:02.064Z,0.002
2024-02-12T00:15:02.030Z,0.095
2024-02-12T00:20:01.987Z,0.054
2024-02-12T00:25:02.008Z,0.014
2024-02-12T00:30:02.066Z,0.01
2024-02-12T00:35:02.330Z,0.006
2024-02-12T00:40:02.018Z,0.167
2024-02-12T00:45:01.873Z,0.167
2024-02-12T00:50:01.961Z,0.123
2024-02-12T00:55:01.884Z,0.113
2024-02-12T01:00:01.907Z,0.116
2024-02-12T01:05:02.027Z,0.129
2024-02-12T01:10:01.953Z,0.029
2024-02-12T01:15:01.925Z,0
2024-02-12T01:20:02.024Z,0
2024-02-12T01:25:01.958Z,0
2024-02-12T01:30:01.926Z,0.001
2024-02-12T01:35:02.068Z,0
2024-02-12T01:40:02.014Z,0.005
2024-02-12T01:45:02.326Z,0.107
2024-02-12T01:50:02.018Z,0.109
2024-02-12T01:55:02.047Z,0.113
2024-02-12T02:00:02.014Z,0.115
2024-02-12T02:05:02.296Z,0.003
2024-02-12T02:10:02.143Z,0.10300000000000001
2024-02-12T02:15:02.184Z,0.153
2024-02-12T02:20:02.259Z,0.162
2024-02-12T02:25:01.965Z,0.169
2024-02-12T02:30:01.946Z,0.225
2024-02-12T02:35:02.028Z,0.23800000000000002
2024-02-12T02:40:02.062Z,0.28500000000000003
2024-02-12T02:45:01.963Z,0
2024-02-12T02:50:02.090Z,0
2024-02-12T02:55:02.233Z,0
2024-02-12T03:00:01.972Z,0
2024-02-12T03:05:02.041Z,0
2024-02-12T03:10:01.996Z,0
2024-02-12T03:15:02.156Z,0
2024-02-12T03:20:02.203Z,0
2024-02-12T03:25:02.111Z,0
2024-02-12T03:30:02.176Z,0
2024-02-12T03:35:02.214Z,0
2024-02-12T03:40:02.280Z,0
2024-02-12T03:45:02.053Z,0
2024-02-12T03:50:02.168Z,0.074
2024-02-12T03:55:02.518Z,0.182
2024-02-12T04:00:02.048Z,0.182
2024-02-12T04:05:02.074Z,0.17500000000000002
2024-02-12T04:10:02.171Z,0.129
2024-02-12T04:15:02.028Z,0.128
2024-02-12T04:20:02.111Z,0.08600000000000001
2024-02-12T04:25:02.067Z,0
2024-02-12T04:30:02.326Z,0
2024-02-12T04:35:02.291Z,0
2024-02-12T04:40:02.190Z,0
2024-02-12T04:45:02.152Z,0
2024-02-12T04:50:02.285Z,0.015
2024-02-12T04:55:02.193Z,0.013000000000000001
2024-02-12T05:00:02.228Z,0.107
2024-02-12T05:05:02.145Z,0.128
2024-02-12T05:10:02.175Z,0.125
2024-02-12T05:15:02.122Z,0.12
2024-02-12T05:20:02.226Z,0
2024-02-12T05:25:02.113Z,0
2024-02-12T05:30:02.112Z,0
2024-02-12T05:35:02.163Z,0
2024-02-12T05:40:02.111Z,0
2024-02-12T05:45:02.238Z,0.152
2024-02-12T05:50:02.158Z,0.113
2024-02-12T05:55:02.178Z,0.107
2024-02-12T06:00:02.162Z,0.112
2024-02-12T06:05:02.233Z,0.1
2024-02-12T06:10:02.150Z,0.096
2024-02-12T06:15:02.221Z,0.316
2024-02-12T06:20:02.242Z,0.195
2024-02-12T06:25:02.398Z,0.056
2024-02-12T06:30:02.384Z,0.03
2024-02-12T06:35:02.376Z,0.097
2024-02-12T06:40:02.312Z,0.088
2024-02-12T06:45:02.380Z,0.073
2024-02-12T06:50:02.403Z,0.048
2024-02-12T06:55:02.150Z,0.004
2024-02-12T07:00:02.197Z,0.013000000000000001
2024-02-12T07:05:02.239Z,0.001
2024-02-12T07:10:02.214Z,0.028
2024-02-12T07:15:02.187Z,0.043000000000000003
2024-02-12T07:20:02.315Z,0.054
2024-02-12T07:25:02.286Z,0.032
2024-02-12T07:30:02.237Z,0.009000000000000001
2024-02-12T07:35:02.246Z,0.062
2024-02-12T07:40:02.261Z,0
2024-02-12T07:45:02.233Z,0
2024-02-12T07:50:02.442Z,54.918
2024-02-12T07:55:02.363Z,78.048
2024-02-12T08:00:02.235Z,63.949
2024-02-12T08:05:02.347Z,78.352
2024-02-12T08:10:04.715Z,64.099
2024-02-12T08:15:02.308Z,78.421
2024-02-12T08:20:02.422Z,65.20100000000001
2024-02-12T08:25:02.249Z,79.999
2024-02-12T08:30:02.338Z,66.649
2024-02-12T08:35:02.284Z,87.367
2024-02-12T08:40:02.332Z,74.639
2024-02-12T08:45:02.510Z,93.292
2024-02-12T08:50:02.448Z,75.028
2024-02-12T08:55:02.488Z,87.168
2024-02-12T09:00:02.520Z,87.014
2024-02-12T09:05:02.456Z,91.32300000000001
2024-02-12T09:10:02.529Z,96.525
2024-02-12T09:15:02.445Z,117.61
2024-02-12T09:20:02.541Z,137.406
2024-02-12T09:25:02.544Z,148.998
2024-02-12T09:30:02.350Z,161.338
2024-02-12T09:35:02.580Z,168.085
2024-02-12T09:40:02.361Z,175.264
2024-02-12T09:45:02.400Z,185.001
2024-02-12T09:50:02.350Z,185.788
2024-02-12T09:55:02.451Z,198.094
2024-02-12T10:00:02.348Z,260.98
2024-02-12T10:05:02.495Z,346.858
2024-02-12T10:10:02.512Z,361.144
2024-02-12T10:15:02.494Z,397.783
2024-02-12T10:20:02.514Z,381.06100000000004
2024-02-12T10:25:02.323Z,348.02
2024-02-12T10:30:02.394Z,361.637
2024-02-12T10:35:02.440Z,424.456
2024-02-12T10:40:02.373Z,485.62100000000004
2024-02-12T10:45:02.367Z,507.154
2024-02-12T10:50:02.431Z,494.586
2024-02-12T10:55:02.385Z,484.41
2024-02-12T11:00:02.487Z,506.777
2024-02-12T11:05:02.425Z,489.88800000000003
2024-02-12T11:10:02.474Z,445.931
2024-02-12T11:15:02.643Z,414.62
2024-02-12T11:20:02.623Z,393.423
2024-02-12T11:25:06.024Z,386.632
2024-02-12T11:30:02.458Z,349.973
2024-02-12T11:35:02.694Z,321.182
2024-02-12T11:40:02.540Z,370.244
2024-02-12T11:45:02.607Z,412.356
2024-02-12T11:50:02.612Z,467.92400000000004
2024-02-12T11:55:02.591Z,383.574
2024-02-12T12:00:02.652Z,391.663
2024-02-12T12:05:02.667Z,414.099
2024-02-12T12:10:02.716Z,421.45300000000003
2024-02-12T12:15:02.653Z,420.386
2024-02-12T12:20:02.613Z,427.2
2024-02-12T12:25:02.537Z,471.516
2024-02-12T12:30:02.682Z,445.582
2024-02-12T12:35:02.578Z,445.09700000000004
2024-02-12T12:40:02.498Z,386.067
2024-02-12T12:45:02.544Z,420.098
2024-02-12T12:50:02.494Z,431.958
2024-02-12T12:55:02.485Z,492.051
2024-02-12T13:00:02.598Z,541.87
2024-02-12T13:05:02.539Z,522.572
2024-02-12T13:20:02.719Z,466.907
2024-02-12T13:25:07.222Z,473.504
2024-02-12T13:30:02.659Z,429.089
2024-02-12T13:35:02.727Z,473.712
2024-02-12T13:40:02.740Z,571.653
2024-02-12T13:45:02.579Z,604.146
2024-02-12T13:50:02.675Z,650.544
2024-02-12T13:55:02.633Z,600.538
2024-02-12T14:00:18.124Z,548.1510000000001
2024-02-12T14:05:02.785Z,442.895
2024-02-12T14:10:02.573Z,476.31100000000004
2024-02-12T14:15:02.580Z,527.631
2024-02-12T14:20:02.739Z,427.26800000000003
2024-02-12T14:25:04.014Z,315.579
2024-02-12T14:30:02.682Z,215.334
2024-02-12T14:35:02.696Z,192.678
2024-02-12T14:40:02.640Z,186.746
2024-02-12T14:45:02.677Z,204.409
2024-02-12T14:50:02.872Z,212.708
2024-02-12T14:55:02.775Z,199.258
2024-02-12T15:00:02.806Z,158.124
2024-02-12T15:05:02.764Z,109.102
2024-02-12T15:10:02.618Z,90.486
2024-02-12T15:15:02.661Z,83.327
2024-02-12T15:20:02.754Z,83.944
2024-02-12T15:25:02.636Z,91.71900000000001
2024-02-12T15:30:02.644Z,73.308
2024-02-12T15:35:02.651Z,90.843
2024-02-12T15:40:02.625Z,69.901
2024-02-12T15:45:02.639Z,81.555
2024-02-12T15:50:02.714Z,65.292
2024-02-12T15:55:02.838Z,0.048
2024-02-12T16:00:02.749Z,0.038
2024-02-12T16:05:02.869Z,0.062
2024-02-12T16:10:02.824Z,0.113
2024-02-12T16:15:02.683Z,0.105
2024-02-12T16:20:02.810Z,0.099
2024-02-12T16:25:02.890Z,0.093
2024-02-12T16:30:02.728Z,0.091
2024-02-12T16:35:02.819Z,0.135
2024-02-12T16:40:02.732Z,0.14300000000000002
2024-02-12T16:45:02.657Z,0.117
2024-02-12T16:50:02.791Z,0.028
2024-02-12T16:55:02.736Z,0.008
2024-02-12T17:00:02.919Z,0.042
2024-02-12T17:05:02.793Z,0.058
2024-02-12T17:10:02.812Z,0.337
2024-02-12T17:15:02.804Z,0.307
2024-02-12T17:20:03.000Z,0.13
2024-02-12T17:25:02.896Z,0.105
2024-02-12T17:30:02.945Z,0.05
2024-02-12T17:35:02.769Z,0.031
2024-02-12T17:40:02.729Z,0.036000000000000004
2024-02-12T17:45:02.709Z,0.059000000000000004
2024-02-12T17:50:03.046Z,0.085
2024-02-12T17:55:02.823Z,0.056
2024-02-12T18:00:02.824Z,0.075
2024-02-12T18:05:02.792Z,0.04
2024-02-12T18:10:02.755Z,0.06
2024-02-12T18:15:02.797Z,0.05
2024-02-12T18:20:03.150Z,0.069
2024-02-12T18:25:02.828Z,0.069
2024-02-12T18:30:02.822Z,0.076
2024-02-12T18:35:03.004Z,0.096
2024-02-12T18:40:02.899Z,0.097
2024-02-12T18:45:03.051Z,0.132
2024-02-12T18:50:03.219Z,0.127
2024-02-12T18:55:02.853Z,0.039
2024-02-12T19:00:02.842Z,0.965
2024-02-12T19:05:03.049Z,0.591
2024-02-12T19:10:02.829Z,0.462
2024-02-12T19:15:02.889Z,0.004
2024-02-12T19:20:03.134Z,0
2024-02-12T19:25:02.883Z,0
2024-02-12T19:30:02.829Z,0.013000000000000001
2024-02-12T19:35:02.955Z,0.047
2024-02-12T19:40:04.938Z,0.20600000000000002
2024-02-12T19:45:03.093Z,0.077
2024-02-12T19:50:03.124Z,0.32
2024-02-12T19:55:03.030Z,0.396
2024-02-12T20:00:02.932Z,0.387
2024-02-12T20:05:03.127Z,0.256
2024-02-12T20:10:02.925Z,0.274
2024-02-12T20:15:02.885Z,0.267
2024-02-12T20:20:02.873Z,0.076
2024-02-12T20:25:02.920Z,0.076
2024-02-12T20:30:02.894Z,0.084
2024-02-12T20:35:02.894Z,0.373
2024-02-12T20:40:02.931Z,0.265
2024-02-12T20:45:03.040Z,0.032
2024-02-12T20:50:03.112Z,0.001
2024-02-12T20:55:03.108Z,0.011
2024-02-12T21:00:02.982Z,0.066
2024-02-12T21:05:02.943Z,0.012
2024-02-12T21:10:02.904Z,0
2024-02-12T21:15:03.004Z,0
2024-02-12T21:20:03.024Z,0
2024-02-12T21:25:02.900Z,0.124
2024-02-12T21:30:03.126Z,3.678
2024-02-12T21:35:03.057Z,3.6550000000000002
2024-02-12T21:40:02.948Z,2.499
2024-02-12T21:45:03.051Z,2.661
2024-02-12T21:50:03.059Z,2.563
2024-02-12T21:55:03.083Z,2.673
2024-02-12T22:00:03.227Z,2.466
2024-02-12T22:05:03.106Z,2.771
2024-02-12T22:10:02.984Z,0.991
2024-02-12T22:15:03.046Z,0.986
2024-02-12T22:20:03.004Z,0.963
2024-02-12T22:25:02.965Z,0.987
2024-02-12T22:30:03.124Z,1.006
2024-02-12T22:35:03.006Z,0.843
2024-02-12T22:40:03.001Z,0.777
2024-02-12T22:45:03.079Z,0.794
2024-02-12T22:50:03.179Z,0.804
2024-02-12T22:55:03.176Z,0.799
2024-02-12T23:00:03.353Z,0.746
2024-02-12T23:05:03.182Z,0.73
2024-02-12T23:10:03.072Z,0.965
2024-02-12T23:15:03.028Z,0.988
2024-02-12T23:20:03.086Z,1.0110000000000001
2024-02-12T23:25:03.061Z,1.37
2024-02-12T23:30:03.057Z,1.702
2024-02-12T23:35:03.132Z,1.8960000000000001
2024-02-12T23:40:03.080Z,1.482
2024-02-12T23:45:03.114Z,1.012
2024-02-12T23:50:03.249Z,0.895
2024-02-12T23:55:03.169Z,0.751
